Main page
METAR-TAF:

METAR-TAF

Airports :

Yakutsk Airport

Yakutsk, Russia

latitude: 62-01N, longitude: 129-43E, elevation: 103 m

Current weather observation

The report was made 18 minutes ago, at 06:30 UTC
Wind 4 kt from the East, varying between Northeast and East/Southeast
Temperature 26°C
Humidity 30%
Pressure 1014 hPa
Visibility 10 km or more
no clouds below 1500 m and no cumulonimbus

METAR: UEEE 300630Z 08002MPS 040V110 CAVOK 26/07 Q1014 R23L/09//70 NOSIG RMK QFE752

Time: 15:48 (06:48 UTC)

Forecast

The report was made 1 hour and 48 minutes ago, at 05:00 UTC
Forecast valid from 30 at 06 UTC to 31 at 12 UTC
Wind 6 kt from the East with gusts up to 16 kt
Visibility 10 km or more
no clouds below 1500 m and no cumulonimbus

TAF: UEEE 300500Z 3006/3112 08003G08MPS CAVOK

Weather observations and forecasts of more than 4000 airports (METAR and TAF reports).

The available stations are represented by yellow and red dots on the map.

Hover mouse over dot to see the name of the station.

Then click to see weather observations and forecasts.

To change the map : click on the green buttons with a black cross to zoom in, on the green button with a dash to zoom out, or on the green arrows for adjacent maps.


METAR-TAF: